sensor_id;sensor_type;location;lat;lon;timestamp;P1;durP1;ratioP1;P2;durP2;ratioP2
33760;SDS011;20084;47.912;19.044;2024-03-07T00:00:16;4.90;;;3.60;;
33760;SDS011;20084;47.912;19.044;2024-03-07T00:02:46;4.43;;;3.80;;
33760;SDS011;20084;47.912;19.044;2024-03-07T00:05:13;5.20;;;3.83;;
33760;SDS011;20084;47.912;19.044;2024-03-07T00:07:43;3.85;;;3.45;;
33760;SDS011;20084;47.912;19.044;2024-03-07T00:10:09;4.93;;;3.63;;
33760;SDS011;20084;47.912;19.044;2024-03-07T00:12:35;4.32;;;3.50;;
33760;SDS011;20084;47.912;19.044;2024-03-07T00:15:06;4.25;;;3.42;;
33760;SDS011;20084;47.912;19.044;2024-03-07T00:17:32;5.38;;;3.40;;
33760;SDS011;20084;47.912;19.044;2024-03-07T00:19:58;3.55;;;3.25;;
33760;SDS011;20084;47.912;19.044;2024-03-07T00:22:24;3.78;;;3.25;;
33760;SDS011;20084;47.912;19.044;2024-03-07T00:24:52;4.05;;;2.92;;
33760;SDS011;20084;47.912;19.044;2024-03-07T00:27:18;4.70;;;3.42;;
33760;SDS011;20084;47.912;19.044;2024-03-07T00:29:45;4.97;;;3.85;;
33760;SDS011;20084;47.912;19.044;2024-03-07T00:34:47;4.22;;;3.20;;
33760;SDS011;20084;47.912;19.044;2024-03-07T00:37:13;4.47;;;3.53;;
33760;SDS011;20084;47.912;19.044;2024-03-07T00:39:39;6.07;;;4.00;;
33760;SDS011;20084;47.912;19.044;2024-03-07T00:42:05;4.13;;;3.35;;
33760;SDS011;20084;47.912;19.044;2024-03-07T00:44:31;4.95;;;3.55;;
33760;SDS011;20084;47.912;19.044;2024-03-07T00:46:57;4.35;;;3.22;;
33760;SDS011;20084;47.912;19.044;2024-03-07T00:49:23;4.90;;;3.25;;
33760;SDS011;20084;47.912;19.044;2024-03-07T00:51:48;4.68;;;3.55;;
33760;SDS011;20084;47.912;19.044;2024-03-07T00:54:14;3.95;;;3.22;;
33760;SDS011;20084;47.912;19.044;2024-03-07T00:56:41;3.47;;;3.17;;
33760;SDS011;20084;47.912;19.044;2024-03-07T00:59:07;4.80;;;3.60;;
33760;SDS011;20084;47.912;19.044;2024-03-07T01:01:32;4.30;;;3.15;;
33760;SDS011;20084;47.912;19.044;2024-03-07T01:04:01;4.20;;;3.35;;
33760;SDS011;20084;47.912;19.044;2024-03-07T01:06:27;4.13;;;3.10;;
33760;SDS011;20084;47.912;19.044;2024-03-07T01:08:53;4.25;;;3.08;;
33760;SDS011;20084;47.912;19.044;2024-03-07T01:11:19;3.60;;;2.60;;
33760;SDS011;20084;47.912;19.044;2024-03-07T01:13:45;5.10;;;3.67;;
33760;SDS011;20084;47.912;19.044;2024-03-07T01:16:10;5.60;;;4.47;;
33760;SDS011;20084;47.912;19.044;2024-03-07T01:18:37;4.88;;;3.30;;
33760;SDS011;20084;47.912;19.044;2024-03-07T01:21:03;8.68;;;5.93;;
33760;SDS011;20084;47.912;19.044;2024-03-07T01:23:30;12.35;;;8.20;;
33760;SDS011;20084;47.912;19.044;2024-03-07T01:25:57;15.48;;;10.32;;
33760;SDS011;20084;47.912;19.044;2024-03-07T01:28:23;13.85;;;9.65;;
33760;SDS011;20084;47.912;19.044;2024-03-07T01:30:55;13.00;;;7.95;;
33760;SDS011;20084;47.912;19.044;2024-03-07T01:33:22;8.18;;;5.68;;
33760;SDS011;20084;47.912;19.044;2024-03-07T01:35:48;6.57;;;5.07;;
33760;SDS011;20084;47.912;19.044;2024-03-07T01:38:14;6.32;;;5.03;;
33760;SDS011;20084;47.912;19.044;2024-03-07T01:40:40;8.15;;;5.80;;
33760;SDS011;20084;47.912;19.044;2024-03-07T01:43:06;5.88;;;4.28;;
33760;SDS011;20084;47.912;19.044;2024-03-07T01:45:32;10.32;;;5.60;;
33760;SDS011;20084;47.912;19.044;2024-03-07T01:47:58;11.10;;;6.35;;
33760;SDS011;20084;47.912;19.044;2024-03-07T01:50:24;12.23;;;7.00;;
33760;SDS011;20084;47.912;19.044;2024-03-07T01:52:50;12.50;;;7.53;;
33760;SDS011;20084;47.912;19.044;2024-03-07T01:55:16;6.30;;;5.03;;
33760;SDS011;20084;47.912;19.044;2024-03-07T01:57:43;5.75;;;3.90;;
33760;SDS011;20084;47.912;19.044;2024-03-07T02:00:10;4.25;;;3.38;;
33760;SDS011;20084;47.912;19.044;2024-03-07T02:02:36;4.28;;;3.20;;
33760;SDS011;20084;47.912;19.044;2024-03-07T02:05:02;5.22;;;3.85;;
33760;SDS011;20084;47.912;19.044;2024-03-07T02:07:28;4.05;;;3.40;;
33760;SDS011;20084;47.912;19.044;2024-03-07T02:10:01;5.13;;;3.78;;
33760;SDS011;20084;47.912;19.044;2024-03-07T02:12:28;3.97;;;3.25;;
33760;SDS011;20084;47.912;19.044;2024-03-07T02:14:55;4.20;;;3.38;;
33760;SDS011;20084;47.912;19.044;2024-03-07T02:17:25;4.45;;;3.53;;
33760;SDS011;20084;47.912;19.044;2024-03-07T02:19:51;4.05;;;3.55;;
33760;SDS011;20084;47.912;19.044;2024-03-07T02:22:17;4.53;;;3.63;;
33760;SDS011;20084;47.912;19.044;2024-03-07T02:24:44;5.65;;;3.35;;
33760;SDS011;20084;47.912;19.044;2024-03-07T02:27:10;4.10;;;3.40;;
33760;SDS011;20084;47.912;19.044;2024-03-07T02:29:36;3.78;;;3.33;;
33760;SDS011;20084;47.912;19.044;2024-03-07T02:32:02;4.22;;;3.45;;
33760;SDS011;20084;47.912;19.044;2024-03-07T02:34:28;3.80;;;3.38;;
33760;SDS011;20084;47.912;19.044;2024-03-07T02:36:54;5.07;;;3.67;;
33760;SDS011;20084;47.912;19.044;2024-03-07T02:39:20;4.72;;;3.60;;
33760;SDS011;20084;47.912;19.044;2024-03-07T02:41:46;4.55;;;3.42;;
33760;SDS011;20084;47.912;19.044;2024-03-07T02:44:31;4.15;;;3.50;;
33760;SDS011;20084;47.912;19.044;2024-03-07T02:46:57;3.83;;;3.30;;
33760;SDS011;20084;47.912;19.044;2024-03-07T02:49:23;5.63;;;3.78;;
33760;SDS011;20084;47.912;19.044;2024-03-07T02:51:49;4.82;;;3.53;;
33760;SDS011;20084;47.912;19.044;2024-03-07T02:54:15;3.60;;;3.15;;
33760;SDS011;20084;47.912;19.044;2024-03-07T02:56:40;3.95;;;3.55;;
33760;SDS011;20084;47.912;19.044;2024-03-07T02:59:06;4.20;;;3.08;;
33760;SDS011;20084;47.912;19.044;2024-03-07T03:01:32;4.03;;;3.05;;
33760;SDS011;20084;47.912;19.044;2024-03-07T03:03:57;2.88;;;2.47;;
33760;SDS011;20084;47.912;19.044;2024-03-07T03:06:23;2.75;;;2.45;;
33760;SDS011;20084;47.912;19.044;2024-03-07T03:08:49;2.95;;;2.58;;
33760;SDS011;20084;47.912;19.044;2024-03-07T03:11:15;9.35;;;3.50;;
33760;SDS011;20084;47.912;19.044;2024-03-07T03:13:40;4.63;;;2.63;;
33760;SDS011;20084;47.912;19.044;2024-03-07T03:16:06;3.90;;;2.97;;
33760;SDS011;20084;47.912;19.044;2024-03-07T03:18:33;3.85;;;3.15;;
33760;SDS011;20084;47.912;19.044;2024-03-07T03:20:59;4.15;;;3.00;;
33760;SDS011;20084;47.912;19.044;2024-03-07T03:23:31;3.75;;;2.95;;
33760;SDS011;20084;47.912;19.044;2024-03-07T03:25:56;3.60;;;2.97;;
33760;SDS011;20084;47.912;19.044;2024-03-07T03:28:22;3.45;;;3.08;;
33760;SDS011;20084;47.912;19.044;2024-03-07T03:30:48;4.00;;;3.22;;
33760;SDS011;20084;47.912;19.044;2024-03-07T03:33:15;2.60;;;2.40;;
33760;SDS011;20084;47.912;19.044;2024-03-07T03:35:41;2.83;;;2.35;;
33760;SDS011;20084;47.912;19.044;2024-03-07T03:38:07;3.85;;;2.08;;
33760;SDS011;20084;47.912;19.044;2024-03-07T03:40:33;3.53;;;2.92;;
33760;SDS011;20084;47.912;19.044;2024-03-07T03:42:59;2.97;;;2.63;;
33760;SDS011;20084;47.912;19.044;2024-03-07T03:45:25;3.47;;;3.15;;
33760;SDS011;20084;47.912;19.044;2024-03-07T03:47:52;3.90;;;3.25;;
33760;SDS011;20084;47.912;19.044;2024-03-07T03:50:18;3.30;;;3.00;;
33760;SDS011;20084;47.912;19.044;2024-03-07T03:52:43;3.42;;;2.65;;
33760;SDS011;20084;47.912;19.044;2024-03-07T03:55:09;5.15;;;2.85;;
33760;SDS011;20084;47.912;19.044;2024-03-07T03:57:36;4.88;;;2.85;;
33760;SDS011;20084;47.912;19.044;2024-03-07T04:00:07;3.40;;;2.67;;
33760;SDS011;20084;47.912;19.044;2024-03-07T04:02:40;2.95;;;2.65;;
33760;SDS011;20084;47.912;19.044;2024-03-07T04:05:07;5.00;;;3.00;;
33760;SDS011;20084;47.912;19.044;2024-03-07T04:07:36;3.35;;;2.42;;
33760;SDS011;20084;47.912;19.044;2024-03-07T04:10:03;3.40;;;2.90;;
33760;SDS011;20084;47.912;19.044;2024-03-07T04:12:32;3.38;;;2.50;;
33760;SDS011;20084;47.912;19.044;2024-03-07T04:15:02;3.33;;;2.67;;
33760;SDS011;20084;47.912;19.044;2024-03-07T04:17:29;3.72;;;2.40;;
33760;SDS011;20084;47.912;19.044;2024-03-07T04:19:56;3.40;;;2.55;;
33760;SDS011;20084;47.912;19.044;2024-03-07T04:22:23;2.95;;;2.30;;
33760;SDS011;20084;47.912;19.044;2024-03-07T04:24:49;4.03;;;2.38;;
33760;SDS011;20084;47.912;19.044;2024-03-07T04:27:19;3.08;;;2.53;;
33760;SDS011;20084;47.912;19.044;2024-03-07T04:29:45;2.75;;;2.47;;
33760;SDS011;20084;47.912;19.044;2024-03-07T04:32:13;3.08;;;2.42;;
33760;SDS011;20084;47.912;19.044;2024-03-07T04:34:39;4.35;;;2.45;;
33760;SDS011;20084;47.912;19.044;2024-03-07T04:37:05;2.88;;;2.20;;
33760;SDS011;20084;47.912;19.044;2024-03-07T04:39:31;3.10;;;2.20;;
33760;SDS011;20084;47.912;19.044;2024-03-07T04:42:00;3.03;;;2.40;;
33760;SDS011;20084;47.912;19.044;2024-03-07T04:44:34;2.53;;;2.25;;
33760;SDS011;20084;47.912;19.044;2024-03-07T04:47:01;3.63;;;2.35;;
33760;SDS011;20084;47.912;19.044;2024-03-07T04:49:31;2.60;;;2.40;;
33760;SDS011;20084;47.912;19.044;2024-03-07T04:51:57;2.83;;;2.30;;
33760;SDS011;20084;47.912;19.044;2024-03-07T04:54:24;2.85;;;2.47;;
33760;SDS011;20084;47.912;19.044;2024-03-07T04:56:51;4.03;;;2.00;;
33760;SDS011;20084;47.912;19.044;2024-03-07T04:59:18;2.22;;;1.70;;
33760;SDS011;20084;47.912;19.044;2024-03-07T05:01:45;2.40;;;2.20;;
33760;SDS011;20084;47.912;19.044;2024-03-07T05:04:11;2.92;;;2.35;;
33760;SDS011;20084;47.912;19.044;2024-03-07T05:06:38;2.95;;;2.10;;
33760;SDS011;20084;47.912;19.044;2024-03-07T05:09:05;2.42;;;2.20;;
33760;SDS011;20084;47.912;19.044;2024-03-07T05:11:35;3.88;;;2.17;;
33760;SDS011;20084;47.912;19.044;2024-03-07T05:14:01;3.72;;;2.42;;
33760;SDS011;20084;47.912;19.044;2024-03-07T05:16:28;3.05;;;2.50;;
33760;SDS011;20084;47.912;19.044;2024-03-07T05:18:54;3.03;;;2.65;;
33760;SDS011;20084;47.912;19.044;2024-03-07T05:21:24;2.60;;;2.40;;
33760;SDS011;20084;47.912;19.044;2024-03-07T05:24:03;2.50;;;2.13;;
33760;SDS011;20084;47.912;19.044;2024-03-07T05:26:33;2.25;;;2.03;;
33760;SDS011;20084;47.912;19.044;2024-03-07T05:29:05;2.92;;;2.53;;
33760;SDS011;20084;47.912;19.044;2024-03-07T05:31:33;3.03;;;2.40;;
33760;SDS011;20084;47.912;19.044;2024-03-07T05:34:00;2.50;;;2.17;;
33760;SDS011;20084;47.912;19.044;2024-03-07T05:36:29;2.38;;;2.17;;
33760;SDS011;20084;47.912;19.044;2024-03-07T05:38:57;3.45;;;2.30;;
33760;SDS011;20084;47.912;19.044;2024-03-07T05:41:24;2.92;;;2.42;;
33760;SDS011;20084;47.912;19.044;2024-03-07T05:43:53;2.92;;;2.42;;
33760;SDS011;20084;47.912;19.044;2024-03-07T05:46:19;4.35;;;2.42;;
33760;SDS011;20084;47.912;19.044;2024-03-07T05:48:45;3.42;;;2.72;;
33760;SDS011;20084;47.912;19.044;2024-03-07T05:51:11;3.17;;;2.33;;
33760;SDS011;20084;47.912;19.044;2024-03-07T05:53:37;3.35;;;2.60;;
33760;SDS011;20084;47.912;19.044;2024-03-07T05:56:03;3.80;;;2.83;;
33760;SDS011;20084;47.912;19.044;2024-03-07T05:58:29;3.38;;;2.45;;
33760;SDS011;20084;47.912;19.044;2024-03-07T06:00:55;3.80;;;2.80;;
33760;SDS011;20084;47.912;19.044;2024-03-07T06:03:21;3.10;;;2.75;;
33760;SDS011;20084;47.912;19.044;2024-03-07T06:05:49;3.05;;;2.67;;
33760;SDS011;20084;47.912;19.044;2024-03-07T06:08:16;3.38;;;2.85;;
33760;SDS011;20084;47.912;19.044;2024-03-07T06:10:42;6.30;;;2.75;;
33760;SDS011;20084;47.912;19.044;2024-03-07T06:13:08;3.17;;;2.67;;
33760;SDS011;20084;47.912;19.044;2024-03-07T06:15:36;9.30;;;2.80;;
33760;SDS011;20084;47.912;19.044;2024-03-07T06:18:03;4.50;;;2.45;;
33760;SDS011;20084;47.912;19.044;2024-03-07T06:20:29;2.83;;;2.20;;
33760;SDS011;20084;47.912;19.044;2024-03-07T06:22:55;3.33;;;2.63;;
33760;SDS011;20084;47.912;19.044;2024-03-07T06:25:22;2.88;;;2.33;;
33760;SDS011;20084;47.912;19.044;2024-03-07T06:28:12;2.65;;;2.22;;
33760;SDS011;20084;47.912;19.044;2024-03-07T06:30:39;3.08;;;2.17;;
33760;SDS011;20084;47.912;19.044;2024-03-07T06:33:06;3.13;;;2.35;;
33760;SDS011;20084;47.912;19.044;2024-03-07T06:35:32;3.28;;;2.63;;
33760;SDS011;20084;47.912;19.044;2024-03-07T06:38:01;3.05;;;2.30;;
33760;SDS011;20084;47.912;19.044;2024-03-07T06:40:31;6.45;;;2.10;;
33760;SDS011;20084;47.912;19.044;2024-03-07T06:42:58;2.40;;;2.13;;
33760;SDS011;20084;47.912;19.044;2024-03-07T06:45:24;4.30;;;2.22;;
33760;SDS011;20084;47.912;19.044;2024-03-07T06:47:49;1.95;;;1.80;;
33760;SDS011;20084;47.912;19.044;2024-03-07T06:50:17;25.75;;;4.03;;
33760;SDS011;20084;47.912;19.044;2024-03-07T06:52:45;7.57;;;2.08;;
33760;SDS011;20084;47.912;19.044;2024-03-07T06:55:12;3.47;;;2.17;;
33760;SDS011;20084;47.912;19.044;2024-03-07T06:57:42;2.63;;;2.15;;
33760;SDS011;20084;47.912;19.044;2024-03-07T07:00:09;2.60;;;2.38;;
33760;SDS011;20084;47.912;19.044;2024-03-07T07:02:39;2.53;;;1.95;;
33760;SDS011;20084;47.912;19.044;2024-03-07T07:05:06;2.25;;;2.05;;
33760;SDS011;20084;47.912;19.044;2024-03-07T07:07:36;2.95;;;2.28;;
33760;SDS011;20084;47.912;19.044;2024-03-07T07:10:03;2.42;;;1.92;;
33760;SDS011;20084;47.912;19.044;2024-03-07T07:12:29;3.03;;;2.20;;
33760;SDS011;20084;47.912;19.044;2024-03-07T07:14:55;4.70;;;1.90;;
33760;SDS011;20084;47.912;19.044;2024-03-07T07:17:21;2.22;;;2.03;;
33760;SDS011;20084;47.912;19.044;2024-03-07T07:19:48;2.30;;;2.10;;
33760;SDS011;20084;47.912;19.044;2024-03-07T07:22:14;2.30;;;2.10;;
33760;SDS011;20084;47.912;19.044;2024-03-07T07:24:40;6.45;;;2.20;;
33760;SDS011;20084;47.912;19.044;2024-03-07T07:27:05;2.28;;;2.08;;
33760;SDS011;20084;47.912;19.044;2024-03-07T07:29:33;3.75;;;2.00;;
33760;SDS011;20084;47.912;19.044;2024-03-07T07:31:58;4.35;;;2.58;;
33760;SDS011;20084;47.912;19.044;2024-03-07T07:34:24;2.53;;;2.00;;
33760;SDS011;20084;47.912;19.044;2024-03-07T07:36:50;2.88;;;2.15;;
33760;SDS011;20084;47.912;19.044;2024-03-07T07:39:16;10.10;;;2.85;;
33760;SDS011;20084;47.912;19.044;2024-03-07T07:41:44;2.28;;;2.08;;
33760;SDS011;20084;47.912;19.044;2024-03-07T07:44:10;2.33;;;1.90;;
33760;SDS011;20084;47.912;19.044;2024-03-07T07:46:35;2.17;;;1.98;;
33760;SDS011;20084;47.912;19.044;2024-03-07T07:49:01;2.22;;;1.90;;
33760;SDS011;20084;47.912;19.044;2024-03-07T07:51:27;2.38;;;1.98;;
33760;SDS011;20084;47.912;19.044;2024-03-07T07:53:53;2.03;;;1.83;;
33760;SDS011;20084;47.912;19.044;2024-03-07T07:56:22;2.35;;;1.90;;
33760;SDS011;20084;47.912;19.044;2024-03-07T07:58:49;2.33;;;1.80;;
33760;SDS011;20084;47.912;19.044;2024-03-07T08:01:16;2.08;;;1.88;;
33760;SDS011;20084;47.912;19.044;2024-03-07T08:03:42;3.63;;;2.40;;
33760;SDS011;20084;47.912;19.044;2024-03-07T08:06:09;6.50;;;2.42;;
33760;SDS011;20084;47.912;19.044;2024-03-07T08:08:35;8.85;;;2.55;;
33760;SDS011;20084;47.912;19.044;2024-03-07T08:11:01;10.15;;;2.92;;
33760;SDS011;20084;47.912;19.044;2024-03-07T08:13:27;3.88;;;2.63;;
33760;SDS011;20084;47.912;19.044;2024-03-07T08:15:52;5.95;;;2.33;;
33760;SDS011;20084;47.912;19.044;2024-03-07T08:18:19;10.32;;;2.53;;
33760;SDS011;20084;47.912;19.044;2024-03-07T08:20:45;7.05;;;2.45;;
33760;SDS011;20084;47.912;19.044;2024-03-07T08:23:11;2.13;;;1.92;;
33760;SDS011;20084;47.912;19.044;2024-03-07T08:25:38;8.57;;;2.33;;
33760;SDS011;20084;47.912;19.044;2024-03-07T08:28:07;2.28;;;2.08;;
33760;SDS011;20084;47.912;19.044;2024-03-07T08:30:33;2.30;;;2.10;;
33760;SDS011;20084;47.912;19.044;2024-03-07T08:32:59;4.10;;;2.60;;
33760;SDS011;20084;47.912;19.044;2024-03-07T08:35:28;3.50;;;2.53;;
33760;SDS011;20084;47.912;19.044;2024-03-07T08:37:56;3.95;;;2.47;;
33760;SDS011;20084;47.912;19.044;2024-03-07T08:40:23;4.28;;;2.45;;
33760;SDS011;20084;47.912;19.044;2024-03-07T08:42:55;2.72;;;2.50;;
33760;SDS011;20084;47.912;19.044;2024-03-07T08:45:22;3.08;;;2.50;;
33760;SDS011;20084;47.912;19.044;2024-03-07T08:47:51;3.78;;;2.67;;
33760;SDS011;20084;47.912;19.044;2024-03-07T08:50:21;2.40;;;2.20;;
33760;SDS011;20084;47.912;19.044;2024-03-07T08:52:48;2.83;;;2.63;;
33760;SDS011;20084;47.912;19.044;2024-03-07T08:55:15;12.05;;;2.65;;
33760;SDS011;20084;47.912;19.044;2024-03-07T08:57:42;3.20;;;2.22;;
33760;SDS011;20084;47.912;19.044;2024-03-07T09:00:11;2.58;;;2.33;;
33760;SDS011;20084;47.912;19.044;2024-03-07T09:02:47;2.40;;;2.20;;
33760;SDS011;20084;47.912;19.044;2024-03-07T09:05:15;2.75;;;2.15;;
33760;SDS011;20084;47.912;19.044;2024-03-07T09:07:41;9.77;;;2.95;;
33760;SDS011;20084;47.912;19.044;2024-03-07T09:10:06;10.52;;;2.42;;
33760;SDS011;20084;47.912;19.044;2024-03-07T09:12:32;2.80;;;2.38;;
33760;SDS011;20084;47.912;19.044;2024-03-07T09:14:58;4.75;;;2.20;;
33760;SDS011;20084;47.912;19.044;2024-03-07T09:17:23;2.50;;;2.20;;
33760;SDS011;20084;47.912;19.044;2024-03-07T09:19:49;5.10;;;2.85;;
33760;SDS011;20084;47.912;19.044;2024-03-07T09:22:15;2.80;;;2.22;;
33760;SDS011;20084;47.912;19.044;2024-03-07T09:24:41;3.03;;;2.70;;
33760;SDS011;20084;47.912;19.044;2024-03-07T09:27:06;2.97;;;2.30;;
33760;SDS011;20084;47.912;19.044;2024-03-07T09:29:33;3.17;;;2.88;;
33760;SDS011;20084;47.912;19.044;2024-03-07T09:31:58;3.13;;;2.33;;
33760;SDS011;20084;47.912;19.044;2024-03-07T09:34:24;3.10;;;2.65;;
33760;SDS011;20084;47.912;19.044;2024-03-07T09:36:50;3.60;;;2.85;;
33760;SDS011;20084;47.912;19.044;2024-03-07T09:39:16;3.40;;;2.55;;
33760;SDS011;20084;47.912;19.044;2024-03-07T09:41:43;3.05;;;2.75;;
33760;SDS011;20084;47.912;19.044;2024-03-07T09:44:10;2.58;;;2.38;;
33760;SDS011;20084;47.912;19.044;2024-03-07T09:46:40;5.63;;;3.03;;
33760;SDS011;20084;47.912;19.044;2024-03-07T09:49:06;3.15;;;2.85;;
33760;SDS011;20084;47.912;19.044;2024-03-07T09:51:33;3.13;;;2.83;;
33760;SDS011;20084;47.912;19.044;2024-03-07T09:54:00;3.50;;;3.10;;
33760;SDS011;20084;47.912;19.044;2024-03-07T09:56:27;3.13;;;2.50;;
33760;SDS011;20084;47.912;19.044;2024-03-07T09:58:56;20.75;;;4.13;;
33760;SDS011;20084;47.912;19.044;2024-03-07T10:01:25;4.05;;;2.90;;
33760;SDS011;20084;47.912;19.044;2024-03-07T10:03:55;2.88;;;2.58;;
33760;SDS011;20084;47.912;19.044;2024-03-07T10:06:23;3.10;;;2.80;;
33760;SDS011;20084;47.912;19.044;2024-03-07T10:08:49;3.10;;;2.80;;
33760;SDS011;20084;47.912;19.044;2024-03-07T10:11:15;3.65;;;3.20;;
33760;SDS011;20084;47.912;19.044;2024-03-07T10:13:40;3.92;;;3.22;;
33760;SDS011;20084;47.912;19.044;2024-03-07T10:16:07;4.00;;;3.47;;
33760;SDS011;20084;47.912;19.044;2024-03-07T10:18:33;3.88;;;3.20;;
33760;SDS011;20084;47.912;19.044;2024-03-07T10:21:06;7.57;;;3.00;;
33760;SDS011;20084;47.912;19.044;2024-03-07T10:23:32;4.47;;;2.97;;
33760;SDS011;20084;47.912;19.044;2024-03-07T10:25:59;3.30;;;3.00;;
33760;SDS011;20084;47.912;19.044;2024-03-07T10:28:26;4.30;;;3.17;;
33760;SDS011;20084;47.912;19.044;2024-03-07T10:30:53;3.80;;;3.13;;
33760;SDS011;20084;47.912;19.044;2024-03-07T10:33:18;3.40;;;3.10;;
33760;SDS011;20084;47.912;19.044;2024-03-07T10:35:48;3.50;;;3.15;;
33760;SDS011;20084;47.912;19.044;2024-03-07T10:38:14;4.95;;;4.00;;
33760;SDS011;20084;47.912;19.044;2024-03-07T10:40:40;4.10;;;3.30;;
33760;SDS011;20084;47.912;19.044;2024-03-07T10:43:09;4.30;;;3.58;;
33760;SDS011;20084;47.912;19.044;2024-03-07T10:48:12;4.18;;;3.47;;
33760;SDS011;20084;47.912;19.044;2024-03-07T10:50:41;4.03;;;3.40;;
33760;SDS011;20084;47.912;19.044;2024-03-07T10:53:19;4.10;;;3.63;;
33760;SDS011;20084;47.912;19.044;2024-03-07T10:58:46;3.20;;;2.90;;
33760;SDS011;20084;47.912;19.044;2024-03-07T11:01:32;4.15;;;3.75;;
33760;SDS011;20084;47.912;19.044;2024-03-07T11:04:00;4.28;;;3.30;;
33760;SDS011;20084;47.912;19.044;2024-03-07T11:06:30;4.85;;;3.30;;
33760;SDS011;20084;47.912;19.044;2024-03-07T11:08:59;3.45;;;3.15;;
33760;SDS011;20084;47.912;19.044;2024-03-07T11:11:34;3.97;;;3.55;;
33760;SDS011;20084;47.912;19.044;2024-03-07T11:14:01;3.72;;;3.30;;
33760;SDS011;20084;47.912;19.044;2024-03-07T11:16:27;4.97;;;3.30;;
33760;SDS011;20084;47.912;19.044;2024-03-07T11:21:51;6.22;;;3.47;;
33760;SDS011;20084;47.912;19.044;2024-03-07T11:24:23;3.60;;;3.30;;
33760;SDS011;20084;47.912;19.044;2024-03-07T11:26:50;4.78;;;3.75;;
33760;SDS011;20084;47.912;19.044;2024-03-07T11:29:58;7.80;;;3.78;;
33760;SDS011;20084;47.912;19.044;2024-03-07T11:32:18;15.02;;;3.83;;
33760;SDS011;20084;47.912;19.044;2024-03-07T11:34:48;25.75;;;4.43;;
33760;SDS011;20084;47.912;19.044;2024-03-07T11:37:20;6.00;;;3.47;;
33760;SDS011;20084;47.912;19.044;2024-03-07T11:40:02;3.85;;;3.25;;
33760;SDS011;20084;47.912;19.044;2024-03-07T11:42:33;4.07;;;3.40;;
33760;SDS011;20084;47.912;19.044;2024-03-07T11:45:01;5.55;;;3.40;;
33760;SDS011;20084;47.912;19.044;2024-03-07T11:47:36;4.20;;;3.42;;
33760;SDS011;20084;47.912;19.044;2024-03-07T11:50:03;4.55;;;3.80;;
33760;SDS011;20084;47.912;19.044;2024-03-07T11:52:33;5.50;;;3.55;;
33760;SDS011;20084;47.912;19.044;2024-03-07T11:55:01;4.78;;;3.83;;
33760;SDS011;20084;47.912;19.044;2024-03-07T11:57:30;4.10;;;3.70;;
33760;SDS011;20084;47.912;19.044;2024-03-07T11:59:59;5.13;;;3.97;;
33760;SDS011;20084;47.912;19.044;2024-03-07T12:02:26;4.40;;;3.50;;
33760;SDS011;20084;47.912;19.044;2024-03-07T12:04:52;4.43;;;3.60;;
33760;SDS011;20084;47.912;19.044;2024-03-07T12:07:18;3.80;;;3.47;;
33760;SDS011;20084;47.912;19.044;2024-03-07T12:09:47;4.20;;;3.65;;
33760;SDS011;20084;47.912;19.044;2024-03-07T12:12:19;5.57;;;4.18;;
33760;SDS011;20084;47.912;19.044;2024-03-07T12:14:50;4.45;;;3.85;;
33760;SDS011;20084;47.912;19.044;2024-03-07T12:17:19;4.00;;;3.42;;
33760;SDS011;20084;47.912;19.044;2024-03-07T12:19:45;4.20;;;3.55;;
33760;SDS011;20084;47.912;19.044;2024-03-07T12:22:12;3.75;;;3.40;;
33760;SDS011;20084;47.912;19.044;2024-03-07T12:24:38;4.53;;;4.03;;
33760;SDS011;20084;47.912;19.044;2024-03-07T12:27:11;4.03;;;3.35;;
33760;SDS011;20084;47.912;19.044;2024-03-07T12:29:40;4.00;;;3.53;;
33760;SDS011;20084;47.912;19.044;2024-03-07T12:32:08;4.88;;;4.10;;
33760;SDS011;20084;47.912;19.044;2024-03-07T12:34:38;5.25;;;4.07;;
33760;SDS011;20084;47.912;19.044;2024-03-07T12:37:11;4.60;;;3.78;;
33760;SDS011;20084;47.912;19.044;2024-03-07T12:39:43;6.78;;;4.00;;
33760;SDS011;20084;47.912;19.044;2024-03-07T12:42:14;6.90;;;4.20;;
33760;SDS011;20084;47.912;19.044;2024-03-07T12:44:41;4.40;;;3.92;;
33760;SDS011;20084;47.912;19.044;2024-03-07T12:47:10;4.47;;;3.78;;
33760;SDS011;20084;47.912;19.044;2024-03-07T12:49:35;5.78;;;4.40;;
33760;SDS011;20084;47.912;19.044;2024-03-07T12:52:02;5.68;;;4.32;;
33760;SDS011;20084;47.912;19.044;2024-03-07T12:54:27;3.80;;;3.28;;
33760;SDS011;20084;47.912;19.044;2024-03-07T12:56:55;4.68;;;3.67;;
33760;SDS011;20084;47.912;19.044;2024-03-07T12:59:21;4.15;;;3.75;;
33760;SDS011;20084;47.912;19.044;2024-03-07T13:01:49;6.82;;;4.07;;
33760;SDS011;20084;47.912;19.044;2024-03-07T13:04:15;6.47;;;4.28;;
33760;SDS011;20084;47.912;19.044;2024-03-07T13:06:41;5.90;;;3.97;;
33760;SDS011;20084;47.912;19.044;2024-03-07T13:09:12;4.72;;;3.90;;
33760;SDS011;20084;47.912;19.044;2024-03-07T13:11:38;4.68;;;3.63;;
33760;SDS011;20084;47.912;19.044;2024-03-07T13:14:07;4.88;;;3.97;;
33760;SDS011;20084;47.912;19.044;2024-03-07T13:16:34;4.50;;;4.05;;
33760;SDS011;20084;47.912;19.044;2024-03-07T13:19:00;4.68;;;4.03;;
33760;SDS011;20084;47.912;19.044;2024-03-07T13:21:29;4.47;;;3.85;;
33760;SDS011;20084;47.912;19.044;2024-03-07T13:24:00;7.95;;;4.68;;
33760;SDS011;20084;47.912;19.044;2024-03-07T13:26:26;5.63;;;4.03;;
33760;SDS011;20084;47.912;19.044;2024-03-07T13:28:55;5.15;;;3.95;;
33760;SDS011;20084;47.912;19.044;2024-03-07T13:31:21;5.15;;;4.00;;
33760;SDS011;20084;47.912;19.044;2024-03-07T13:33:48;5.90;;;4.05;;
33760;SDS011;20084;47.912;19.044;2024-03-07T13:36:16;4.88;;;4.05;;
33760;SDS011;20084;47.912;19.044;2024-03-07T13:38:49;4.28;;;3.50;;
33760;SDS011;20084;47.912;19.044;2024-03-07T13:41:20;4.90;;;3.85;;
33760;SDS011;20084;47.912;19.044;2024-03-07T13:43:46;6.53;;;4.78;;
33760;SDS011;20084;47.912;19.044;2024-03-07T13:46:13;4.45;;;3.85;;
33760;SDS011;20084;47.912;19.044;2024-03-07T13:48:40;8.00;;;4.03;;
33760;SDS011;20084;47.912;19.044;2024-03-07T13:51:07;6.47;;;4.55;;
33760;SDS011;20084;47.912;19.044;2024-03-07T13:53:33;4.55;;;3.63;;
33760;SDS011;20084;47.912;19.044;2024-03-07T14:29:36;6.00;;;3.38;;
33760;SDS011;20084;47.912;19.044;2024-03-07T14:32:03;3.33;;;2.72;;
33760;SDS011;20084;47.912;19.044;2024-03-07T14:37:32;4.90;;;3.42;;
33760;SDS011;20084;47.912;19.044;2024-03-07T14:40:19;3.47;;;3.10;;
33760;SDS011;20084;47.912;19.044;2024-03-07T14:42:47;3.38;;;2.88;;
33760;SDS011;20084;47.912;19.044;2024-03-07T14:45:25;4.68;;;2.90;;
33760;SDS011;20084;47.912;19.044;2024-03-07T14:47:58;4.28;;;3.88;;
33760;SDS011;20084;47.912;19.044;2024-03-07T14:50:26;5.28;;;3.45;;
33760;SDS011;20084;47.912;19.044;2024-03-07T14:52:55;3.92;;;3.10;;
33760;SDS011;20084;47.912;19.044;2024-03-07T14:55:20;4.65;;;3.55;;
33760;SDS011;20084;47.912;19.044;2024-03-07T14:57:46;5.35;;;3.45;;
33760;SDS011;20084;47.912;19.044;2024-03-07T15:00:12;5.28;;;3.33;;
33760;SDS011;20084;47.912;19.044;2024-03-07T15:05:14;4.13;;;3.17;;
33760;SDS011;20084;47.912;19.044;2024-03-07T15:07:41;6.20;;;3.20;;
33760;SDS011;20084;47.912;19.044;2024-03-07T15:10:14;4.97;;;3.80;;
33760;SDS011;20084;47.912;19.044;2024-03-07T15:12:49;6.55;;;5.95;;
33760;SDS011;20084;47.912;19.044;2024-03-07T15:15:15;9.98;;;8.75;;
33760;SDS011;20084;47.912;19.044;2024-03-07T15:17:44;4.47;;;3.75;;
33760;SDS011;20084;47.912;19.044;2024-03-07T15:20:10;4.18;;;3.10;;
33760;SDS011;20084;47.912;19.044;2024-03-07T15:22:52;7.60;;;3.35;;
33760;SDS011;20084;47.912;19.044;2024-03-07T15:25:19;4.00;;;2.95;;